Time;durP1;ratioP1;P1;durP2;ratioP2;P2;SDS_P1;SDS_P2;PMS_P1;PMS_P2;Temp;Humidity;BMP_temperature;BMP_pressure;BME280_temperature;BME280_humidity;BME280_pressure;Samples;Min_cycle;Max_cycle;Signal;HPM_P1;HPM_P2
2022/01/27 00:00:45;;;;;;;0.10;0.10;;;4.50;99.90;;;;;;6214000;23;20127;-85
2022/01/27 00:06:05;;;;;;;0.10;0.10;;;4.50;99.90;;;;;;6213842;23;20537;-84
2022/01/27 00:08:44;;;;;;;0.00;0.00;;;4.50;99.90;;;;;;6188913;23;20021;-83
2022/01/27 00:11:15;;;;;;;0.00;0.00;;;4.60;99.90;;;;;;6213263;23;20028;-84
2022/01/27 00:13:47;;;;;;;0.00;0.00;;;4.50;99.90;;;;;;6238813;23;20391;-84
2022/01/27 00:16:21;;;;;;;0.10;0.10;;;4.50;99.90;;;;;;6211452;23;20031;-85
2022/01/27 00:18:50;;;;;;;0.10;0.10;;;4.50;99.90;;;;;;6238716;23;20320;-85
2022/01/27 00:21:19;;;;;;;0.10;0.10;;;4.50;99.90;;;;;;6234810;23;20095;-84
2022/01/27 00:23:46;;;;;;;0.10;0.10;;;4.50;99.90;;;;;;6238336;23;20024;-86
2022/01/27 00:26:16;;;;;;;0.00;0.00;;;4.50;99.90;;;;;;6234918;23;20017;-84
2022/01/27 00:28:45;;;;;;;0.10;0.10;;;4.50;99.90;;;;;;6238804;23;20017;-84
2022/01/27 00:31:14;;;;;;;0.10;0.10;;;4.60;99.90;;;;;;6238790;23;20383;-84
2022/01/27 00:33:42;;;;;;;0.10;0.10;;;4.60;99.90;;;;;;6238852;23;20016;-85
2022/01/27 00:36:09;;;;;;;0.10;0.10;;;;;;;;;;6223984;23;20024;-85
2022/01/27 00:38:37;;;;;;;0.10;0.10;;;4.50;99.90;;;;;;6213786;23;20031;-82
2022/01/27 00:41:04;;;;;;;0.03;0.03;;;4.50;99.90;;;;;;6189658;23;20076;-85
2022/01/27 00:43:32;;;;;;;0.10;0.10;;;4.50;99.90;;;;;;6214735;23;20017;-83
2022/01/27 00:45:59;;;;;;;0.00;0.00;;;4.50;99.90;;;;;;6215009;23;20016;-83
2022/01/27 00:48:27;;;;;;;0.10;0.10;;;;;;;;;;6214368;23;20349;-84
2022/01/27 00:50:58;;;;;;;0.10;0.10;;;4.60;99.90;;;;;;6189425;23;20021;-84
2022/01/27 00:53:44;;;;;;;0.10;0.10;;;;;;;;;;6238577;23;20017;-85
2022/01/27 00:56:21;;;;;;;0.05;0.05;;;;;;;;;;6189093;23;20016;-85
2022/01/27 00:59:16;;;;;;;0.00;0.00;;;4.70;99.90;;;;;;6188884;23;20021;-83
2022/01/27 01:01:48;;;;;;;0.10;0.10;;;4.70;99.90;;;;;;6214738;23;20020;-83
2022/01/27 01:04:15;;;;;;;0.10;0.10;;;4.70;99.90;;;;;;6239287;23;20021;-86
2022/01/27 01:06:46;;;;;;;0.00;0.00;;;4.60;99.90;;;;;;6239296;23;20024;-83
2022/01/27 01:12:38;;;;;;;0.10;0.10;;;;;;;;;;6214577;23;20017;-85
2022/01/27 01:14:54;;;;;;;0.00;0.00;;;4.60;99.90;;;;;;6214720;23;20016;-83
2022/01/27 01:20:05;;;;;;;0.00;0.00;;;4.60;99.90;;;;;;6216198;23;20078;-85
2022/01/27 01:30:58;;;;;;;0.10;0.10;;;4.50;99.90;;;;;;6238587;23;20084;-83
2022/01/27 01:33:32;;;;;;;0.10;0.10;;;4.50;99.90;;;;;;6238190;23;20020;-84
2022/01/27 01:36:13;;;;;;;0.10;0.10;;;;;;;;;;6238732;23;20024;-85
2022/01/27 01:38:41;;;;;;;0.10;0.10;;;4.60;99.90;;;;;;6188562;23;20013;-85
2022/01/27 01:41:09;;;;;;;0.10;0.10;;;4.60;99.90;;;;;;6249240;23;20100;-83
2022/01/27 01:43:36;;;;;;;0.10;0.10;;;4.60;99.90;;;;;;6215321;23;20027;-84
2022/01/27 01:46:04;;;;;;;0.00;0.00;;;4.60;99.90;;;;;;6248647;23;20016;-83
2022/01/27 01:48:31;;;;;;;0.10;0.10;;;;;;;;;;6189255;23;20514;-86
2022/01/27 01:51:00;;;;;;;0.10;0.10;;;4.60;99.90;;;;;;6225335;23;20100;-85
2022/01/27 01:53:28;;;;;;;0.10;0.10;;;;;;;;;;6214883;23;20029;-84
2022/01/27 01:55:56;;;;;;;0.10;0.10;;;4.70;99.90;;;;;;6215988;23;20447;-85
2022/01/27 01:58:24;;;;;;;0.10;0.10;;;;;;;;;;6188895;23;20028;-84
2022/01/27 02:00:51;;;;;;;0.00;0.00;;;;;;;;;;6214946;23;20017;-85
2022/01/27 02:03:19;;;;;;;0.00;0.00;;;4.60;99.90;;;;;;6215161;23;20066;-83
2022/01/27 02:05:51;;;;;;;0.10;0.10;;;4.60;99.90;;;;;;6240505;23;20020;-83
2022/01/27 02:19:12;;;;;;;;;;;4.30;99.90;;;;;;6218454;23;20017;-83
2022/01/27 02:21:45;;;;;;;0.00;0.00;;;4.40;99.90;;;;;;6193660;23;19916;-83
2022/01/27 02:24:13;;;;;;;0.03;0.03;;;;;;;;;;6245975;23;20028;-85
2022/01/27 02:26:41;;;;;;;0.05;0.05;;;4.40;99.90;;;;;;6191388;23;20016;-85
2022/01/27 02:29:09;;;;;;;0.00;0.00;;;4.30;99.90;;;;;;6235090;23;20092;-84
2022/01/27 02:31:36;;;;;;;0.08;0.08;;;4.40;99.90;;;;;;6213882;23;20083;-84
2022/01/27 02:34:05;;;;;;;0.00;0.00;;;4.30;99.90;;;;;;6215017;23;20025;-84
2022/01/27 02:36:33;;;;;;;0.10;0.10;;;4.30;99.90;;;;;;6240488;23;20025;-84
2022/01/27 02:39:03;;;;;;;0.00;0.00;;;4.30;99.90;;;;;;6240917;23;20097;-83
2022/01/27 02:41:35;;;;;;;0.10;0.10;;;4.30;99.90;;;;;;6240825;23;20078;-82
2022/01/27 02:44:02;;;;;;;0.10;0.10;;;4.40;99.90;;;;;;6239411;23;20047;-83
2022/01/27 02:46:34;;;;;;;0.10;0.10;;;4.40;99.90;;;;;;6200381;23;20094;-84
2022/01/27 02:49:01;;;;;;;0.05;0.05;;;4.40;99.90;;;;;;6240937;23;20012;-84
2022/01/27 02:51:28;;;;;;;0.10;0.10;;;4.40;99.90;;;;;;6217425;23;20024;-85
2022/01/27 02:53:55;;;;;;;0.00;0.00;;;4.40;99.90;;;;;;6215428;23;20028;-83
2022/01/27 02:56:24;;;;;;;0.10;0.10;;;4.30;99.90;;;;;;6239223;23;20479;-83
2022/01/27 02:58:51;;;;;;;0.10;0.10;;;;;;;;;;6199786;23;20013;-84
2022/01/27 03:50:20;;;;;;;0.00;0.00;;;4.30;99.90;;;;;;6252416;23;20028;-87
2022/01/27 03:52:53;;;;;;;0.08;0.08;;;4.30;99.90;;;;;;6253131;23;20451;-86
2022/01/27 03:55:20;;;;;;;0.00;0.00;;;;;;;;;;6252414;23;20027;-87
2022/01/27 03:57:47;;;;;;;0.00;0.00;;;4.30;99.90;;;;;;6225358;23;20035;-89
2022/01/27 04:00:15;;;;;;;0.10;0.10;;;4.30;99.90;;;;;;6250269;23;20374;-87
2022/01/27 04:15:59;;;;;;;0.00;0.00;;;4.30;99.90;;;;;;6217007;23;20032;-83
2022/01/27 04:18:27;;;;;;;0.10;0.10;;;4.30;99.90;;;;;;6217648;23;20019;-85
2022/01/27 04:20:54;;;;;;;0.10;0.10;;;4.40;99.90;;;;;;6189858;23;20324;-85
2022/01/27 04:23:21;;;;;;;0.10;0.10;;;4.40;99.90;;;;;;6167319;23;20017;-85
2022/01/27 04:25:48;;;;;;;0.10;0.10;;;4.40;99.90;;;;;;6135855;23;20076;-84
2022/01/27 04:28:21;;;;;;;0.00;0.00;;;4.40;99.90;;;;;;6159596;23;20020;-85
2022/01/27 04:30:49;;;;;;;0.00;0.00;;;4.30;99.90;;;;;;6160353;23;20017;-84
2022/01/27 04:33:17;;;;;;;0.10;0.10;;;4.40;99.90;;;;;;6161267;23;20052;-85
2022/01/27 04:35:48;;;;;;;0.00;0.00;;;;;;;;;;6160208;23;20380;-83
2022/01/27 04:41:07;;;;;;;0.00;0.00;;;;;;;;;;6160597;23;20075;-84
2022/01/27 04:43:45;;;;;;;0.10;0.10;;;4.40;99.90;;;;;;6186871;23;20456;-85
2022/01/27 04:48:52;;;;;;;0.10;0.10;;;4.40;99.90;;;;;;6186956;23;20032;-85
2022/01/27 04:51:21;;;;;;;0.10;0.10;;;4.30;99.90;;;;;;6160269;23;20072;-85
2022/01/27 04:53:59;;;;;;;0.10;0.10;;;4.30;99.90;;;;;;6186723;23;20459;-85
2022/01/27 04:56:27;;;;;;;0.00;0.00;;;4.30;99.90;;;;;;6160633;23;20052;-85
2022/01/27 04:58:59;;;;;;;0.10;0.10;;;4.30;99.90;;;;;;6160184;23;20017;-84
2022/01/27 05:01:33;;;;;;;0.00;0.00;;;4.40;99.90;;;;;;6137152;23;20383;-86
2022/01/27 05:04:17;;;;;;;0.10;0.10;;;4.40;99.90;;;;;;6187063;23;20352;-83
2022/01/27 05:06:48;;;;;;;0.10;0.10;;;4.30;99.90;;;;;;6160467;23;20475;-84
2022/01/27 05:09:15;;;;;;;0.10;0.10;;;4.40;99.90;;;;;;6185249;23;20017;-84
2022/01/27 05:11:54;;;;;;;0.00;0.00;;;;;;;;;;6186945;23;20833;-84
2022/01/27 05:14:25;;;;;;;0.10;0.10;;;4.40;99.90;;;;;;6135091;23;20329;-85
2022/01/27 05:16:53;;;;;;;0.03;0.03;;;4.40;99.90;;;;;;6160774;23;20510;-84
2022/01/27 05:19:21;;;;;;;0.00;0.00;;;4.40;99.90;;;;;;6170707;23;20020;-86
2022/01/27 05:21:48;;;;;;;0.10;0.10;;;4.50;99.90;;;;;;6187245;23;20440;-85
2022/01/27 05:24:20;;;;;;;0.00;0.00;;;4.50;99.90;;;;;;6161814;23;20024;-86
2022/01/27 05:26:47;;;;;;;0.00;0.00;;;4.40;99.90;;;;;;6135953;23;20021;-85
2022/01/27 05:29:15;;;;;;;0.10;0.10;;;;;;;;;;6161049;23;20452;-84
2022/01/27 05:31:46;;;;;;;0.10;0.10;;;4.40;99.90;;;;;;6160327;23;20528;-84
2022/01/27 05:34:13;;;;;;;0.10;0.10;;;4.40;99.90;;;;;;6161277;23;20028;-85
2022/01/27 05:36:41;;;;;;;0.10;0.10;;;4.40;99.90;;;;;;6135933;23;20025;-85
2022/01/27 05:39:08;;;;;;;0.10;0.10;;;4.30;99.90;;;;;;6160482;23;20333;-85
2022/01/27 05:41:34;;;;;;;0.00;0.00;;;4.40;99.90;;;;;;6135880;23;20052;-83
2022/01/27 05:44:01;;;;;;;0.10;0.10;;;4.40;99.90;;;;;;6160976;23;20356;-86
2022/01/27 05:46:28;;;;;;;0.00;0.00;;;4.40;99.90;;;;;;6196296;23;20017;-83
2022/01/27 05:48:55;;;;;;;0.10;0.10;;;4.40;99.90;;;;;;6161978;23;20088;-83
2022/01/27 05:51:23;;;;;;;0.10;0.10;;;;;;;;;;6161498;23;20044;-84
2022/01/27 05:53:51;;;;;;;0.00;0.00;;;4.40;99.90;;;;;;6160372;23;20021;-83
2022/01/27 05:56:20;;;;;;;0.10;0.10;;;4.40;99.90;;;;;;6136906;23;20044;-83
2022/01/27 05:58:47;;;;;;;0.00;0.00;;;;;;;;;;6163175;23;20020;-85
2022/01/27 06:01:14;;;;;;;0.10;0.10;;;4.50;99.90;;;;;;6187114;23;20017;-84
2022/01/27 06:03:42;;;;;;;0.10;0.10;;;;;;;;;;6161263;23;20317;-85
2022/01/27 06:06:09;;;;;;;0.10;0.10;;;4.50;99.90;;;;;;6160834;23;20376;-86
2022/01/27 06:08:36;;;;;;;0.10;0.10;;;4.50;99.90;;;;;;6187870;23;20044;-84
2022/01/27 06:11:05;;;;;;;0.10;0.10;;;4.40;99.90;;;;;;6160866;23;20463;-84
2022/01/27 06:13:32;;;;;;;0.10;0.10;;;4.40;99.90;;;;;;6188305;23;20395;-85
2022/01/27 06:15:59;;;;;;;0.10;0.10;;;4.50;99.90;;;;;;6162193;23;20021;-85
2022/01/27 06:18:26;;;;;;;0.10;0.10;;;4.50;99.90;;;;;;6161109;23;20067;-85
2022/01/27 06:20:55;;;;;;;0.10;0.10;;;4.50;99.90;;;;;;6160443;23;20017;-85
2022/01/27 06:23:21;;;;;;;0.08;0.08;;;4.50;99.90;;;;;;6161708;23;20021;-85
2022/01/27 06:25:48;;;;;;;0.10;0.10;;;4.60;99.90;;;;;;6162209;23;20025;-86
2022/01/27 06:28:16;;;;;;;0.10;0.10;;;3.90;99.90;;;;;;6163415;23;20025;-85
2022/01/27 06:30:44;;;;;;;0.10;0.10;;;;;;;;;;6162068;23;20021;-83
2022/01/27 06:33:11;;;;;;;0.10;0.10;;;4.60;99.90;;;;;;6187578;23;20013;-84
2022/01/27 06:35:39;;;;;;;0.10;0.10;;;;;;;;;;6168713;23;20028;-85
2022/01/27 06:38:06;;;;;;;0.00;0.00;;;4.60;99.90;;;;;;6161420;23;20352;-84
2022/01/27 06:40:33;;;;;;;0.10;0.10;;;;;;;;;;6137503;23;20121;-83
2022/01/27 06:43:00;;;;;;;0.00;0.00;;;;;;;;;;6161173;23;20020;-84
2022/01/27 06:45:28;;;;;;;0.10;0.10;;;4.70;99.90;;;;;;6161548;23;20052;-83
2022/01/27 06:47:55;;;;;;;0.05;0.05;;;4.60;99.90;;;;;;6160741;23;20017;-84
2022/01/27 06:50:22;;;;;;;0.10;0.10;;;4.60;99.90;;;;;;6187957;23;20013;-84
2022/01/27 06:52:49;;;;;;;0.00;0.00;;;;;;;;;;6172597;23;20024;-85
2022/01/27 06:55:21;;;;;;;0.10;0.10;;;4.70;99.90;;;;;;6163027;23;20025;-85
2022/01/27 06:57:49;;;;;;;0.08;0.08;;;4.70;99.90;;;;;;6189571;23;20125;-85
2022/01/27 07:00:17;;;;;;;0.10;0.10;;;4.70;99.90;;;;;;6189554;23;20063;-86
2022/01/27 07:02:45;;;;;;;0.10;0.10;;;4.70;99.90;;;;;;6164996;23;20021;-85
2022/01/27 07:05:15;;;;;;;0.05;0.05;;;;;;;;;;6168391;23;20021;-84
2022/01/27 07:07:43;;;;;;;0.10;0.10;;;4.70;99.90;;;;;;6164511;23;20021;-84
2022/01/27 07:10:10;;;;;;;0.10;0.10;;;4.70;99.90;;;;;;6160629;23;20396;-84
2022/01/27 07:12:39;;;;;;;0.10;0.10;;;4.80;99.90;;;;;;6159796;23;20075;-85
2022/01/27 07:15:08;;;;;;;0.10;0.10;;;4.70;99.90;;;;;;6160344;23;20020;-82
2022/01/27 07:17:36;;;;;;;0.00;0.00;;;4.70;99.90;;;;;;6160305;23;20024;-85
2022/01/27 07:20:05;;;;;;;0.10;0.10;;;4.70;99.90;;;;;;6159671;23;20021;-86
2022/01/27 07:22:33;;;;;;;0.10;0.10;;;4.60;99.90;;;;;;6160427;23;20076;-84
2022/01/27 07:25:01;;;;;;;0.10;0.10;;;5.20;99.90;;;;;;6187502;23;20028;-84
2022/01/27 07:27:28;;;;;;;0.10;0.10;;;4.60;99.90;;;;;;6160659;23;20021;-85
2022/01/27 07:29:55;;;;;;;0.00;0.00;;;;;;;;;;6170353;23;20017;-84
2022/01/27 07:32:22;;;;;;;0.00;0.00;;;;;;;;;;6159717;23;20025;-85
2022/01/27 07:34:50;;;;;;;0.10;0.10;;;;;;;;;;6159557;23;20024;-84
2022/01/27 07:37:18;;;;;;;0.00;0.00;;;4.70;99.90;;;;;;6171617;23;20437;-85
2022/01/27 07:39:45;;;;;;;0.10;0.10;;;;;;;;;;6161354;23;20080;-83
2022/01/27 07:42:12;;;;;;;0.10;0.10;;;;;;;;;;6188839;23;20047;-82
2022/01/27 07:44:39;;;;;;;0.10;0.10;;;4.70;99.90;;;;;;6161283;23;20020;-84
2022/01/27 07:47:07;;;;;;;0.00;0.00;;;4.80;99.90;;;;;;6161914;23;20017;-83
2022/01/27 07:49:34;;;;;;;0.00;0.00;;;;;;;;;;6188181;23;20407;-84
2022/01/27 07:52:01;;;;;;;0.10;0.10;;;;;;;;;;6165012;23;20395;-82
2022/01/27 07:54:30;;;;;;;0.10;0.10;;;4.80;99.90;;;;;;6161878;23;20120;-83
2022/01/27 07:56:57;;;;;;;0.10;0.10;;;;;;;;;;6162090;23;20021;-85
2022/01/27 07:59:24;;;;;;;0.03;0.03;;;4.80;99.90;;;;;;6159464;23;20020;-84
2022/01/27 08:01:51;;;;;;;0.10;0.10;;;4.80;99.90;;;;;;6133112;23;20024;-84
2022/01/27 08:04:18;;;;;;;0.00;0.00;;;4.80;99.90;;;;;;6157875;23;20103;-86
2022/01/27 08:06:45;;;;;;;0.00;0.00;;;4.80;99.90;;;;;;6158124;23;20024;-84
2022/01/27 08:09:12;;;;;;;0.00;0.00;;;4.80;99.90;;;;;;6157733;23;20045;-84
2022/01/27 08:11:40;;;;;;;0.00;0.00;;;4.70;99.90;;;;;;6158359;23;20017;-85
2022/01/27 08:14:06;;;;;;;0.00;0.00;;;4.70;99.90;;;;;;6185237;23;20021;-84
2022/01/27 08:16:34;;;;;;;0.00;0.00;;;;;;;;;;6159756;23;20016;-84
2022/01/27 08:19:01;;;;;;;0.10;0.10;;;;;;;;;;6159573;23;20266;-86
2022/01/27 08:21:28;;;;;;;0.10;0.10;;;4.70;99.90;;;;;;6158261;23;20017;-83
2022/01/27 08:23:57;;;;;;;0.10;0.10;;;;;;;;;;6167721;23;20013;-85
2022/01/27 08:26:34;;;;;;;0.10;0.10;;;;;;;;;;6157768;23;20020;-85
2022/01/27 08:29:14;;;;;;;0.10;0.10;;;4.80;99.90;;;;;;6183440;23;20017;-86
2022/01/27 08:31:56;;;;;;;0.10;0.10;;;4.80;99.90;;;;;;6157267;23;20399;-85
2022/01/27 08:34:30;;;;;;;0.10;0.10;;;4.80;99.90;;;;;;6157229;23;20024;-85
2022/01/27 08:36:59;;;;;;;0.00;0.00;;;4.80;99.90;;;;;;6132668;23;20341;-85
2022/01/27 08:39:26;;;;;;;0.10;0.10;;;4.80;99.90;;;;;;6183492;23;20052;-87
2022/01/27 08:41:53;;;;;;;0.08;0.08;;;4.80;99.90;;;;;;6158074;23;20448;-85
2022/01/27 08:44:21;;;;;;;0.10;0.10;;;4.80;99.90;;;;;;6157600;23;20020;-85
2022/01/27 08:46:49;;;;;;;0.10;0.10;;;4.90;99.90;;;;;;6157417;23;20407;-86
2022/01/27 08:49:18;;;;;;;0.10;0.10;;;4.90;99.90;;;;;;6157912;23;20085;-86
2022/01/27 08:51:45;;;;;;;0.10;0.10;;;4.90;99.90;;;;;;6157489;23;20099;-85
2022/01/27 08:54:12;;;;;;;0.10;0.10;;;4.90;99.90;;;;;;6183808;23;20021;-85
2022/01/27 08:56:40;;;;;;;0.10;0.10;;;;;;;;;;6158556;23;20029;-88
2022/01/27 08:59:07;;;;;;;0.05;0.05;;;5.00;99.90;;;;;;6157824;23;20025;-86
2022/01/27 09:01:36;;;;;;;0.10;0.10;;;5.00;99.90;;;;;;6133981;23;20071;-84
2022/01/27 09:04:04;;;;;;;0.00;0.00;;;5.00;99.90;;;;;;6133524;23;20021;-88
2022/01/27 09:06:30;;;;;;;0.05;0.05;;;5.10;99.90;;;;;;6158151;23;20116;-86
2022/01/27 09:08:58;;;;;;;0.10;0.10;;;5.10;99.90;;;;;;6158059;23;20028;-87
2022/01/27 09:11:28;;;;;;;0.10;0.10;;;;;;;;;;6158102;23;20021;-85
2022/01/27 09:13:55;;;;;;;0.10;0.10;;;;;;;;;;6158823;23;20024;-86
2022/01/27 09:16:26;;;;;;;0.10;0.10;;;5.10;99.90;;;;;;6157858;23;20021;-86
2022/01/27 09:19:07;;;;;;;0.10;0.10;;;5.20;99.90;;;;;;6135909;23;20205;-86
2022/01/27 09:21:43;;;;;;;0.10;0.10;;;5.20;99.90;;;;;;6133225;23;20013;-87
2022/01/27 09:24:15;;;;;;;0.10;0.10;;;5.20;99.90;;;;;;6159087;23;20087;-85
2022/01/27 09:29:18;;;;;;;0.10;0.10;;;5.30;99.90;;;;;;6184337;23;20024;-87
2022/01/27 09:31:46;;;;;;;0.10;0.10;;;5.30;99.90;;;;;;6158406;23;20071;-85
2022/01/27 09:34:15;;;;;;;0.10;0.10;;;5.30;99.90;;;;;;6169554;23;20345;-87
2022/01/27 09:36:42;;;;;;;0.10;0.10;;;5.30;99.90;;;;;;6158207;23;20021;-87
2022/01/27 09:39:09;;;;;;;0.10;0.10;;;5.40;99.90;;;;;;6158563;23;20017;-86
2022/01/27 09:41:41;;;;;;;0.10;0.10;;;5.40;99.90;;;;;;6158507;23;20088;-87
2022/01/27 09:44:10;;;;;;;0.10;0.10;;;5.40;99.90;;;;;;6158862;23;20526;-87
2022/01/27 09:46:40;;;;;;;0.10;0.10;;;5.50;99.90;;;;;;6158529;23;20017;-87
2022/01/27 09:49:13;;;;;;;;;;;5.40;99.90;;;;;;6133686;23;20051;-85
2022/01/27 09:51:45;;;;;;;0.00;0.00;;;5.50;99.90;;;;;;6158565;23;19916;-87
2022/01/27 09:54:14;;;;;;;0.08;0.08;;;5.50;99.90;;;;;;6134095;23;20075;-85
2022/01/27 09:56:42;;;;;;;0.10;0.10;;;5.50;99.90;;;;;;6168823;23;20017;-87
2022/01/27 09:59:15;;;;;;;0.00;0.00;;;5.40;99.90;;;;;;6182537;23;20104;-86
2022/01/27 10:01:53;;;;;;;0.08;0.08;;;5.50;99.90;;;;;;6159097;23;20089;-85
2022/01/27 10:04:23;;;;;;;0.10;0.10;;;;;;;;;;6133947;23;20437;-86
2022/01/27 10:06:58;;;;;;;0.10;0.10;;;5.70;99.90;;;;;;6194671;23;20021;-86
2022/01/27 10:09:29;;;;;;;0.10;0.10;;;;;;;;;;6194872;23;20055;-87
2022/01/27 10:12:01;;;;;;;0.10;0.10;;;5.70;99.90;;;;;;6158587;23;20112;-87
2022/01/27 10:14:33;;;;;;;0.08;0.08;;;5.70;99.90;;;;;;6157895;23;20087;-87
2022/01/27 10:17:02;;;;;;;0.10;0.10;;;;;;;;;;6157046;23;20072;-86
2022/01/27 10:19:30;;;;;;;0.10;0.10;;;5.70;99.90;;;;;;6158448;23;20103;-87
2022/01/27 10:22:03;;;;;;;0.00;0.00;;;5.70;99.90;;;;;;6157705;23;20397;-87
2022/01/27 10:24:31;;;;;;;0.10;0.10;;;5.80;99.90;;;;;;6133071;23;20025;-88
2022/01/27 10:27:24;;;;;;;0.10;0.10;;;5.80;99.90;;;;;;6158186;23;20021;-87
2022/01/27 10:32:37;;;;;;;0.00;0.00;;;5.80;99.90;;;;;;6158450;23;20036;-86
2022/01/27 10:35:05;;;;;;;0.10;0.10;;;5.80;99.90;;;;;;6109872;23;20021;-86
2022/01/27 10:37:54;;;;;;;0.10;0.10;;;5.80;99.90;;;;;;6159223;23;20021;-86
2022/01/27 10:40:23;;;;;;;0.10;0.10;;;5.80;99.90;;;;;;6185181;23;20024;-87
2022/01/27 10:43:11;;;;;;;0.10;0.10;;;5.80;99.90;;;;;;6159666;23;20017;-87
2022/01/27 10:45:58;;;;;;;0.03;0.03;;;5.90;99.90;;;;;;6157628;23;20024;-87
2022/01/27 10:48:28;;;;;;;0.10;0.10;;;5.90;99.90;;;;;;6159212;23;20036;-87
2022/01/27 10:53:41;;;;;;;0.03;0.03;;;5.90;99.90;;;;;;6185524;23;19924;-87
2022/01/27 10:56:08;;;;;;;0.10;0.10;;;;;;;;;;6140177;23;20520;-86
2022/01/27 10:58:37;;;;;;;0.10;0.10;;;6.00;99.90;;;;;;6159598;23;20028;-86
2022/01/27 11:01:04;;;;;;;0.00;0.00;;;;;;;;;;6159657;23;20017;-86
2022/01/27 11:03:31;;;;;;;0.00;0.00;;;;;;;;;;6161790;23;20079;-87
2022/01/27 11:06:08;;;;;;;0.10;0.10;;;6.00;99.90;;;;;;6162024;23;20448;-86
2022/01/27 11:08:40;;;;;;;0.10;0.10;;;6.00;99.90;;;;;;6139598;23;20020;-85
2022/01/27 11:11:07;;;;;;;0.10;0.10;;;7.20;99.90;;;;;;6162152;23;20025;-86
2022/01/27 11:13:35;;;;;;;0.10;0.10;;;;;;;;;;6159729;23;20020;-86
2022/01/27 11:16:04;;;;;;;0.10;0.10;;;6.00;99.90;;;;;;6185995;23;20075;-85
2022/01/27 11:18:31;;;;;;;0.10;0.10;;;;;;;;;;6163927;23;20294;-86
2022/01/27 11:21:09;;;;;;;0.10;0.10;;;6.10;99.90;;;;;;6184728;23;20024;-87
2022/01/27 11:26:09;;;;;;;0.10;0.10;;;6.20;99.90;;;;;;6158626;23;20024;-86
2022/01/27 11:28:41;;;;;;;0.10;0.10;;;6.30;99.90;;;;;;6135431;23;20448;-87
2022/01/27 11:31:21;;;;;;;0.10;0.10;;;6.20;99.90;;;;;;6158756;23;20388;-87
2022/01/27 11:33:58;;;;;;;;;;;6.30;99.90;;;;;;6160206;23;20028;-87
2022/01/27 11:36:26;;;;;;;0.10;0.10;;;6.30;99.90;;;;;;6158772;23;19970;-87
2022/01/27 11:38:55;;;;;;;0.10;0.10;;;6.30;99.90;;;;;;6159420;23;20075;-87
2022/01/27 11:41:39;;;;;;;0.10;0.10;;;6.30;99.90;;;;;;6134711;23;20337;-86
2022/01/27 11:44:31;;;;;;;0.10;0.10;;;6.30;99.90;;;;;;6162190;23;20025;-87
2022/01/27 11:47:18;;;;;;;0.10;0.10;;;6.30;99.90;;;;;;6113375;23;20024;-86
2022/01/27 11:49:54;;;;;;;0.10;0.10;;;6.30;99.90;;;;;;6161190;23;20075;-86
2022/01/27 11:52:23;;;;;;;0.10;0.10;;;6.30;99.90;;;;;;6170096;23;20503;-87
2022/01/27 11:54:51;;;;;;;0.10;0.10;;;6.30;99.90;;;;;;6159685;23;20078;-85
2022/01/27 11:57:38;;;;;;;0.08;0.08;;;6.30;99.90;;;;;;6159603;23;20021;-86
2022/01/27 12:00:14;;;;;;;0.10;0.10;;;6.40;99.90;;;;;;6133305;23;20029;-86
2022/01/27 12:03:12;;;;;;;0.10;0.10;;;6.40;99.90;;;;;;6134605;23;20025;-86
2022/01/27 12:05:42;;;;;;;0.10;0.10;;;6.50;99.90;;;;;;6185169;23;20025;-86
2022/01/27 12:08:22;;;;;;;0.13;0.13;;;6.50;99.90;;;;;;6134672;23;20024;-87
2022/01/27 12:11:40;;;;;;;0.10;0.10;;;6.40;99.90;;;;;;6138846;23;20028;-87
2022/01/27 12:14:07;;;;;;;0.10;0.10;;;6.50;99.90;;;;;;6134670;23;20056;-86
2022/01/27 12:19:03;;;;;;;0.10;0.10;;;6.60;99.90;;;;;;6183838;23;20017;-86
2022/01/27 12:21:31;;;;;;;0.10;0.10;;;6.60;99.90;;;;;;6133530;23;20083;-85
2022/01/27 12:26:51;;;;;;;0.05;0.05;;;6.60;99.90;;;;;;6185002;23;20331;-86
2022/01/27 12:29:26;;;;;;;0.10;0.10;;;6.70;99.90;;;;;;6158008;23;20020;-87
2022/01/27 12:31:55;;;;;;;0.10;0.10;;;6.60;99.90;;;;;;6183171;23;20079;-87
2022/01/27 12:34:23;;;;;;;0.10;0.10;;;6.60;99.90;;;;;;6158833;23;20116;-86
2022/01/27 12:36:54;;;;;;;0.10;0.10;;;6.70;99.90;;;;;;6159618;23;20021;-87
2022/01/27 12:39:22;;;;;;;0.10;0.10;;;6.80;99.90;;;;;;6187561;23;20072;-86
2022/01/27 12:41:52;;;;;;;0.10;0.10;;;6.80;99.90;;;;;;6159900;23;20052;-87
2022/01/27 12:44:20;;;;;;;0.10;0.10;;;;;;;;;;6158086;23;20024;-85
2022/01/27 12:47:10;;;;;;;0.10;0.10;;;6.80;99.90;;;;;;6160656;23;20083;-86
2022/01/27 12:49:46;;;;;;;0.10;0.10;;;6.80;99.90;;;;;;6154607;23;20029;-85
2022/01/27 12:52:16;;;;;;;0.20;0.20;;;6.90;99.90;;;;;;6170053;23;20020;-87
2022/01/27 12:54:44;;;;;;;;;;;6.90;99.90;;;;;;6185490;23;20021;-86
2022/01/27 12:57:32;;;;;;;0.10;0.10;;;6.90;99.90;;;;;;6137428;23;19916;-87
2022/01/27 13:00:02;;;;;;;0.10;0.10;;;6.90;99.90;;;;;;6133338;23;20028;-87
2022/01/27 13:02:29;;;;;;;0.10;0.10;;;6.90;99.90;;;;;;6184513;23;20021;-86
2022/01/27 13:04:58;;;;;;;0.10;0.10;;;6.90;99.90;;;;;;6157385;23;20100;-86
2022/01/27 13:07:27;;;;;;;0.10;0.10;;;6.90;99.90;;;;;;6157093;23;20536;-86
2022/01/27 13:09:56;;;;;;;0.10;0.10;;;6.90;99.90;;;;;;6182230;23;20028;-87
2022/01/27 13:12:29;;;;;;;0.10;0.10;;;;;;;;;;6158510;23;20028;-85
2022/01/27 13:15:05;;;;;;;0.10;0.10;;;6.90;99.90;;;;;;6165317;23;20020;-86
2022/01/27 13:17:53;;;;;;;0.10;0.10;;;6.90;99.90;;;;;;6157975;23;20503;-85
2022/01/27 13:20:27;;;;;;;0.10;0.10;;;6.90;99.90;;;;;;6113290;23;20284;-85
2022/01/27 13:23:01;;;;;;;0.10;0.10;;;7.00;99.90;;;;;;6157719;23;20017;-86
2022/01/27 13:25:40;;;;;;;0.10;0.10;;;7.00;99.90;;;;;;6185185;23;20103;-87
2022/01/27 13:28:10;;;;;;;0.10;0.10;;;7.10;99.90;;;;;;6157965;23;20071;-86
2022/01/27 13:30:38;;;;;;;0.10;0.10;;;7.70;99.90;;;;;;6170157;23;20016;-87
2022/01/27 13:33:09;;;;;;;0.10;0.10;;;7.10;99.90;;;;;;6158905;23;20189;-85
2022/01/27 13:35:36;;;;;;;0.10;0.10;;;7.00;99.90;;;;;;6155261;23;20032;-85
2022/01/27 13:38:09;;;;;;;0.10;0.10;;;7.00;99.90;;;;;;6155448;23;20116;-86
2022/01/27 13:43:34;;;;;;;0.10;0.10;;;7.10;99.90;;;;;;6181222;23;20503;-86
2022/01/27 13:46:03;;;;;;;0.10;0.10;;;7.10;99.90;;;;;;6157354;23;20479;-87
2022/01/27 13:48:29;;;;;;;0.00;0.00;;;7.10;99.90;;;;;;6156246;23;20352;-86
2022/01/27 13:50:59;;;;;;;0.00;0.00;;;7.20;99.90;;;;;;6155922;23;20080;-86
2022/01/27 13:53:27;;;;;;;0.08;0.08;;;7.20;99.90;;;;;;6133566;23;20095;-86
2022/01/27 13:55:59;;;;;;;0.10;0.10;;;7.20;99.90;;;;;;6156919;23;20075;-86
2022/01/27 13:58:30;;;;;;;0.10;0.10;;;7.20;99.90;;;;;;6155429;23;20107;-86
2022/01/27 14:01:06;;;;;;;0.10;0.10;;;7.30;99.90;;;;;;6157240;23;20021;-86
2022/01/27 14:03:41;;;;;;;0.10;0.10;;;7.30;99.90;;;;;;6135569;23;20026;-86
2022/01/27 14:06:09;;;;;;;0.10;0.10;;;;;;;;;;6158485;23;20044;-85
2022/01/27 14:08:38;;;;;;;0.10;0.10;;;7.40;99.90;;;;;;6169383;23;20464;-85
2022/01/27 14:11:05;;;;;;;0.10;0.10;;;7.30;99.90;;;;;;6159888;23;20048;-86
2022/01/27 14:13:32;;;;;;;0.10;0.10;;;;;;;;;;6158625;23;20025;-87
2022/01/27 14:16:00;;;;;;;0.10;0.10;;;;;;;;;;6158954;23;20036;-87
2022/01/27 14:18:30;;;;;;;0.10;0.10;;;7.40;99.90;;;;;;6184204;23;20021;-88
2022/01/27 14:20:59;;;;;;;0.10;0.10;;;7.40;99.90;;;;;;6157552;23;20075;-86
2022/01/27 14:23:47;;;;;;;0.10;0.10;;;7.30;99.90;;;;;;6160714;23;20076;-86
2022/01/27 14:28:58;;;;;;;0.10;0.10;;;7.40;99.90;;;;;;6184517;23;20017;-87
2022/01/27 14:31:26;;;;;;;0.10;0.10;;;7.40;99.90;;;;;;6134859;23;20096;-84
2022/01/27 14:33:54;;;;;;;0.10;0.10;;;7.40;99.90;;;;;;6158134;23;20068;-86
2022/01/27 14:36:24;;;;;;;0.10;0.10;;;;;;;;;;6189146;23;20009;-86
2022/01/27 14:39:00;;;;;;;0.10;0.10;;;;;;;;;;6162715;23;20027;-87
2022/01/27 14:41:27;;;;;;;0.10;0.10;;;7.50;99.90;;;;;;6162786;23;20021;-86
2022/01/27 14:43:54;;;;;;;0.10;0.10;;;7.50;99.90;;;;;;6160752;23;20017;-87
2022/01/27 14:46:28;;;;;;;0.10;0.10;;;7.50;99.90;;;;;;6160164;23;20048;-86
2022/01/27 14:49:00;;;;;;;0.10;0.10;;;7.50;99.90;;;;;;6159434;23;20075;-87
2022/01/27 14:51:29;;;;;;;0.10;0.10;;;7.60;99.90;;;;;;6158555;23;20572;-87
2022/01/27 14:53:56;;;;;;;0.10;0.10;;;7.60;99.90;;;;;;6154646;23;20021;-86
2022/01/27 14:56:23;;;;;;;0.10;0.10;;;;;;;;;;6157182;23;20085;-85
2022/01/27 14:58:51;;;;;;;0.10;0.10;;;;;;;;;;6158736;23;20552;-86
2022/01/27 15:01:18;;;;;;;0.10;0.10;;;;;;;;;;6156961;23;20107;-88
2022/01/27 15:03:46;;;;;;;0.10;0.10;;;;;;;;;;6168993;23;20024;-88
2022/01/27 15:06:14;;;;;;;0.10;0.10;;;7.60;99.90;;;;;;6159847;23;20020;-85
2022/01/27 15:08:42;;;;;;;0.10;0.10;;;;;;;;;;6158291;23;20345;-86
2022/01/27 15:11:08;;;;;;;0.10;0.10;;;7.70;99.90;;;;;;6157009;23;20021;-87
2022/01/27 15:13:42;;;;;;;0.10;0.10;;;7.70;99.90;;;;;;6157670;23;20028;-85
2022/01/27 15:19:42;;;;;;;0.08;0.08;;;7.80;99.90;;;;;;6184417;23;20092;-86
2022/01/27 15:21:49;;;;;;;0.10;0.10;;;7.70;99.90;;;;;;6170647;23;20060;-86
2022/01/27 15:24:16;;;;;;;0.10;0.10;;;;;;;;;;6160326;23;20036;-84
2022/01/27 15:26:44;;;;;;;0.10;0.10;;;;;;;;;;6159423;23;20024;-85
2022/01/27 15:29:11;;;;;;;0.10;0.10;;;;;;;;;;6157261;23;20028;-85
2022/01/27 15:31:38;;;;;;;0.10;0.10;;;;;;;;;;6157912;23;20017;-85
2022/01/27 15:34:05;;;;;;;0.10;0.10;;;;;;;;;;6183781;23;20021;-86